Time;durP1;ratioP1;P1;durP2;ratioP2;P2;SDS_P1;SDS_P2;PMS_P1;PMS_P2;Temp;Humidity;BMP_temperature;BMP_pressure;BME280_temperature;BME280_humidity;BME280_pressure;Samples;Min_cycle;Max_cycle;Signal;HPM_P1;HPM_P2
2022/04/08 00:04:44;;;;;;;5.07;0.50;;;6.70;99.90;;;;;;20797932;28;20046;-44
2022/04/08 00:14:45;;;;;;;4.57;0.63;;;6.70;99.90;;;;;;20798842;28;20048;-44
2022/04/08 00:24:46;;;;;;;2.42;0.40;;;6.60;99.90;;;;;;20799167;28;20050;-43
2022/04/08 00:34:48;;;;;;;5.25;0.80;;;6.40;99.90;;;;;;20802130;28;20498;-44
2022/04/08 00:44:49;;;;;;;3.65;1.15;;;6.40;99.90;;;;;;20812929;28;20045;-44
2022/04/08 00:54:50;;;;;;;8.30;0.95;;;6.20;99.90;;;;;;20812046;28;20390;-44
2022/04/08 01:04:51;;;;;;;1.90;0.50;;;6.10;99.90;;;;;;20810565;28;20483;-44
2022/04/08 01:14:57;;;;;;;5.20;1.23;;;6.20;99.90;;;;;;20811079;28;20068;-44
2022/04/08 01:25:03;;;;;;;1.60;0.40;;;6.00;99.90;;;;;;20807837;28;20068;-44
2022/04/08 01:35:04;;;;;;;7.88;0.93;;;5.80;99.90;;;;;;20802944;28;20172;-44
2022/04/08 01:45:10;;;;;;;3.15;1.27;;;5.60;99.90;;;;;;20809808;28;20128;-44
2022/04/08 01:55:11;;;;;;;7.95;0.75;;;5.50;99.90;;;;;;20804825;28;20045;-44
2022/04/08 02:05:12;;;;;;;7.97;0.85;;;5.40;99.90;;;;;;20803972;28;20085;-43
2022/04/08 02:15:13;;;;;;;5.32;0.22;;;5.30;99.90;;;;;;20803684;28;20037;-44
2022/04/08 02:25:14;;;;;;;2.38;0.90;;;5.40;99.90;;;;;;20800177;28;20053;-43
2022/04/08 02:35:16;;;;;;;0.63;0.17;;;5.60;99.90;;;;;;20794658;28;20056;-44
2022/04/08 02:45:17;;;;;;;0.65;0.35;;;5.20;99.90;;;;;;20791030;28;20045;-44
2022/04/08 02:55:18;;;;;;;1.35;0.38;;;4.90;99.90;;;;;;20791298;28;20047;-44
2022/04/08 03:05:19;;;;;;;14.30;0.88;;;4.70;99.90;;;;;;20790773;28;20057;-44
2022/04/08 03:15:20;;;;;;;3.35;0.43;;;4.50;99.90;;;;;;20792774;28;20425;-44
2022/04/08 03:25:21;;;;;;;3.75;0.70;;;4.40;99.90;;;;;;20792476;28;20127;-44
2022/04/08 03:35:22;;;;;;;10.02;1.10;;;4.40;99.90;;;;;;20790498;28;20049;-44
2022/04/08 03:45:24;;;;;;;1.88;0.50;;;4.30;99.90;;;;;;20780513;28;20072;-44
2022/04/08 03:55:25;;;;;;;1.17;0.68;;;4.20;99.90;;;;;;20786234;28;20050;-44
2022/04/08 04:05:27;;;;;;;2.70;1.02;;;4.20;99.90;;;;;;20790019;28;20045;-44
2022/04/08 04:15:28;;;;;;;5.57;0.80;;;4.10;99.90;;;;;;20807329;28;20044;-44
2022/04/08 04:25:30;;;;;;;3.20;0.88;;;4.20;99.90;;;;;;20793729;28;20193;-44
2022/04/08 04:35:31;;;;;;;2.15;1.13;;;4.10;99.90;;;;;;20802264;28;20111;-44
2022/04/08 04:45:34;;;;;;;5.45;1.10;;;4.10;99.90;;;;;;20801446;28;20045;-44
2022/04/08 04:55:35;;;;;;;5.75;1.08;;;4.10;99.90;;;;;;20798412;28;20042;-43
2022/04/08 05:05:36;;;;;;;1.75;0.77;;;4.00;99.90;;;;;;20796868;28;20052;-44
2022/04/08 05:15:38;;;;;;;2.95;0.70;;;4.00;99.90;;;;;;20798462;28;20048;-44
2022/04/08 05:25:39;;;;;;;3.38;0.82;;;4.00;99.90;;;;;;20795563;28;20484;-44
2022/04/08 05:35:41;;;;;;;3.95;0.82;;;4.10;99.90;;;;;;20797804;28;20045;-44
2022/04/08 05:45:42;;;;;;;3.83;1.10;;;4.20;99.90;;;;;;20795160;28;20045;-44
2022/04/08 05:55:45;;;;;;;1.73;0.80;;;4.30;99.90;;;;;;20796147;28;20049;-44
2022/04/08 06:05:46;;;;;;;1.90;0.80;;;4.40;99.90;;;;;;20794263;28;20440;-44
2022/04/08 06:15:48;;;;;;;3.72;1.20;;;4.50;99.90;;;;;;20782484;28;20048;-44
2022/04/08 06:25:50;;;;;;;2.15;0.90;;;4.80;99.90;;;;;;20788425;28;20048;-44
2022/04/08 06:35:52;;;;;;;2.70;0.73;;;4.90;99.90;;;;;;20789770;28;20491;-44
2022/04/08 06:45:53;;;;;;;1.05;0.40;;;4.90;99.90;;;;;;20793998;28;20053;-44
2022/04/08 06:55:54;;;;;;;1.48;0.45;;;5.20;99.90;;;;;;20804245;28;20057;-44
2022/04/08 07:05:55;;;;;;;5.05;0.95;;;5.50;99.90;;;;;;20802750;28;20037;-44
2022/04/08 07:15:56;;;;;;;1.70;0.50;;;5.80;99.90;;;;;;20800463;28;20044;-45
2022/04/08 07:25:57;;;;;;;3.55;0.82;;;6.10;99.90;;;;;;20778599;28;20041;-44
2022/04/08 07:35:58;;;;;;;2.92;1.40;;;6.40;99.90;;;;;;20794851;28;20440;-44
2022/04/08 07:45:59;;;;;;;1.58;0.85;;;6.60;99.90;;;;;;20785238;28;20052;-44
2022/04/08 07:56:00;;;;;;;1.38;0.60;;;7.00;99.90;;;;;;20782696;28;20037;-44
2022/04/08 08:06:03;;;;;;;3.33;1.35;;;7.30;99.90;;;;;;20782773;28;20136;-44
2022/04/08 08:16:09;;;;;;;4.30;0.98;;;7.60;99.90;;;;;;20778645;28;20042;-44
2022/04/08 08:26:10;;;;;;;2.03;0.43;;;7.90;99.90;;;;;;20772409;28;20049;-44
2022/04/08 08:36:11;;;;;;;2.10;0.40;;;8.20;99.90;;;;;;20774408;28;20053;-44
2022/04/08 08:46:12;;;;;;;1.10;0.52;;;8.40;99.90;;;;;;20803529;28;20049;-44
2022/04/08 08:56:15;;;;;;;2.85;0.50;;;8.50;99.90;;;;;;20796918;28;20136;-44
2022/04/08 09:06:17;;;;;;;2.47;0.38;;;8.90;99.90;;;;;;20805350;28;20046;-44
2022/04/08 09:16:29;;;;;;;3.08;1.50;;;9.30;99.90;;;;;;20794557;28;20077;-45
2022/04/08 09:26:36;;;;;;;4.38;0.82;;;9.20;99.90;;;;;;20805087;28;20041;-44
2022/04/08 09:36:40;;;;;;;0.87;0.30;;;9.00;99.90;;;;;;20793169;28;20501;-44
2022/04/08 09:46:41;;;;;;;0.90;0.28;;;9.20;99.90;;;;;;20817332;28;20061;-44
2022/04/08 09:56:44;;;;;;;1.73;0.52;;;9.20;99.90;;;;;;20814356;28;20041;-45
2022/04/08 10:06:45;;;;;;;1.15;0.30;;;9.20;99.90;;;;;;20815144;28;20041;-44
2022/04/08 10:16:52;;;;;;;1.42;0.40;;;9.30;99.90;;;;;;20818451;28;20042;-45
2022/04/08 10:27:09;;;;;;;2.70;0.60;;;9.50;99.90;;;;;;20810473;28;20042;-44
2022/04/08 10:37:24;;;;;;;5.57;1.08;;;9.60;99.90;;;;;;20807127;28;20055;-44
2022/04/08 10:47:27;;;;;;;5.70;1.58;;;9.70;99.90;;;;;;20798092;28;20053;-45
2022/04/08 10:57:42;;;;;;;3.28;0.65;;;9.70;99.90;;;;;;20806071;28;20037;-44
2022/04/08 11:07:49;;;;;;;1.33;0.65;;;9.80;99.90;;;;;;20815826;28;20038;-44
2022/04/08 11:17:51;;;;;;;1.40;0.65;;;9.80;99.90;;;;;;20814414;28;20317;-48
2022/04/08 11:28:10;;;;;;;1.75;0.45;;;9.80;99.90;;;;;;20819053;28;20041;-45
2022/04/08 11:38:15;;;;;;;2.88;0.25;;;9.90;99.90;;;;;;20817925;28;20059;-44
2022/04/08 11:48:23;;;;;;;2.40;0.70;;;9.90;99.90;;;;;;20793843;28;20045;-44
2022/04/08 11:58:25;;;;;;;2.08;0.57;;;10.00;99.90;;;;;;20800981;28;20041;-44
2022/04/08 12:08:27;;;;;;;3.28;1.35;;;10.00;99.90;;;;;;20795373;28;20120;-44
2022/04/08 12:18:32;;;;;;;1.42;0.52;;;9.90;99.90;;;;;;20801618;28;20420;-44
2022/04/08 12:28:35;;;;;;;1.52;0.88;;;10.10;99.90;;;;;;20806863;28;20037;-44
2022/04/08 12:38:40;;;;;;;2.03;0.60;;;10.20;99.90;;;;;;20818263;28;20056;-44
2022/04/08 12:48:41;;;;;;;2.17;0.93;;;10.20;99.90;;;;;;20802752;28;20049;-44
2022/04/08 12:58:42;;;;;;;4.43;2.10;;;10.50;99.90;;;;;;20814745;28;20400;-44
2022/04/08 13:08:44;;;;;;;2.25;0.60;;;10.60;99.90;;;;;;20821628;28;20304;-44
2022/04/08 13:18:45;;;;;;;1.08;0.52;;;10.70;99.90;;;;;;20820123;28;20045;-44
2022/04/08 13:28:46;;;;;;;2.65;0.55;;;10.40;99.90;;;;;;20807878;28;20046;-44
2022/04/08 13:38:47;;;;;;;2.08;0.57;;;10.60;99.90;;;;;;20812316;28;20059;-44
2022/04/08 13:48:48;;;;;;;7.00;0.80;;;10.30;99.90;;;;;;20794546;28;20046;-44
2022/04/08 13:58:49;;;;;;;2.75;0.40;;;10.40;99.90;;;;;;20801855;28;20034;-44
2022/04/08 14:08:51;;;;;;;0.50;0.22;;;10.60;99.90;;;;;;20817628;28;20041;-44
2022/04/08 14:18:53;;;;;;;1.95;0.50;;;10.40;99.90;;;;;;20809520;28;20283;-44
2022/04/08 14:28:54;;;;;;;2.08;0.73;;;10.30;99.90;;;;;;20803344;28;20052;-44
2022/04/08 14:38:55;;;;;;;2.35;0.50;;;10.30;99.90;;;;;;20803798;28;20045;-44
2022/04/08 14:48:56;;;;;;;0.98;0.43;;;10.10;99.90;;;;;;20812980;28;20056;-44
2022/04/08 14:58:58;;;;;;;1.20;0.40;;;10.00;99.90;;;;;;20803659;28;20636;-44
2022/04/08 15:08:59;;;;;;;0.70;0.30;;;9.90;99.90;;;;;;20798446;28;20095;-44
2022/04/08 15:19:00;;;;;;;1.08;0.30;;;9.80;99.90;;;;;;20799724;28;20041;-44
2022/04/08 15:29:02;;;;;;;4.25;0.40;;;9.90;99.90;;;;;;20811201;28;20049;-44
2022/04/08 15:39:03;;;;;;;1.02;0.35;;;9.70;99.90;;;;;;20811630;28;20327;-44
2022/04/08 15:49:04;;;;;;;1.10;0.30;;;9.50;99.90;;;;;;20809288;28;20507;-44
2022/04/08 15:59:05;;;;;;;1.50;0.35;;;9.50;99.90;;;;;;20798316;28;20050;-44
2022/04/08 16:09:06;;;;;;;1.83;0.50;;;9.40;99.90;;;;;;20806850;28;20053;-44
2022/04/08 16:19:08;;;;;;;1.60;0.30;;;9.40;99.90;;;;;;20790804;28;22539;-44
2022/04/08 16:29:09;;;;;;;1.30;0.40;;;9.20;99.90;;;;;;20804233;28;20053;-44
2022/04/08 16:39:10;;;;;;;1.73;0.57;;;9.10;99.90;;;;;;20827616;28;20053;-44
2022/04/08 16:49:11;;;;;;;2.33;0.75;;;9.00;99.90;;;;;;20825686;28;20511;-44
2022/04/08 16:59:13;;;;;;;3.75;0.63;;;8.80;99.90;;;;;;20821900;28;20053;-44
2022/04/08 17:09:14;;;;;;;0.98;0.30;;;8.90;99.90;;;;;;20821677;28;20051;-44
2022/04/08 17:19:15;;;;;;;7.65;0.50;;;8.80;99.90;;;;;;20814525;28;20049;-44
2022/04/08 17:29:18;;;;;;;0.65;0.25;;;8.50;99.90;;;;;;20822233;28;20045;-44
2022/04/08 17:39:19;;;;;;;1.23;0.32;;;8.30;99.90;;;;;;20819295;28;20052;-45
2022/04/08 17:49:20;;;;;;;0.80;0.40;;;8.10;99.90;;;;;;20820492;28;20044;-44
2022/04/08 17:59:21;;;;;;;0.90;0.50;;;7.90;99.90;;;;;;20825052;28;20048;-44
2022/04/08 18:09:22;;;;;;;1.73;0.45;;;7.90;99.90;;;;;;20821417;28;20045;-44
2022/04/08 18:19:24;;;;;;;1.52;0.20;;;7.80;99.90;;;;;;20818798;28;20037;-43
2022/04/08 18:29:26;;;;;;;3.53;0.40;;;7.70;99.90;;;;;;20822460;28;20041;-44
2022/04/08 18:39:27;;;;;;;2.83;0.40;;;7.50;99.90;;;;;;20817473;28;20056;-44
2022/04/08 18:49:28;;;;;;;4.47;0.80;;;7.40;99.90;;;;;;20828716;28;20047;-44
2022/04/08 18:59:29;;;;;;;1.77;0.52;;;7.10;99.90;;;;;;20826980;28;20097;-44
2022/04/08 19:09:31;;;;;;;2.95;0.52;;;7.00;99.90;;;;;;20798000;28;20041;-43
2022/04/08 19:19:34;;;;;;;2.05;0.52;;;6.90;99.90;;;;;;20806792;28;20400;-44
2022/04/08 19:29:36;;;;;;;2.13;0.75;;;6.80;99.90;;;;;;20816808;28;20078;-44
2022/04/08 19:39:37;;;;;;;4.13;0.95;;;6.70;99.90;;;;;;20811817;28;20052;-44
2022/04/08 19:49:38;;;;;;;2.13;0.55;;;6.60;99.90;;;;;;20814005;28;20053;-44
2022/04/08 19:59:39;;;;;;;2.25;0.90;;;6.50;99.90;;;;;;20816481;28;20128;-44
2022/04/08 20:09:40;;;;;;;4.00;0.50;;;6.60;99.90;;;;;;20812632;28;20060;-44
2022/04/08 20:19:43;;;;;;;5.97;0.80;;;6.60;99.90;;;;;;20817139;28;20045;-44
2022/04/08 20:29:45;;;;;;;4.10;0.75;;;6.50;99.90;;;;;;20804242;28;20041;-44
2022/04/08 20:39:46;;;;;;;1.23;0.68;;;6.40;99.90;;;;;;20810659;28;20319;-44
2022/04/08 20:49:47;;;;;;;7.80;1.27;;;6.30;99.90;;;;;;20806918;28;20396;-44
2022/04/08 20:59:48;;;;;;;2.22;0.85;;;6.20;99.90;;;;;;20802761;28;20043;-44
2022/04/08 21:09:49;;;;;;;10.70;1.23;;;6.30;99.90;;;;;;20826081;28;20048;-45
2022/04/08 21:19:52;;;;;;;1.98;0.68;;;6.20;99.90;;;;;;20816368;28;20049;-43
2022/04/08 21:29:53;;;;;;;4.15;1.20;;;6.10;99.90;;;;;;20825466;28;20044;-44
2022/04/08 21:39:54;;;;;;;3.35;0.82;;;6.00;99.90;;;;;;20815715;28;20053;-44
2022/04/08 21:49:55;;;;;;;2.58;0.70;;;5.90;99.90;;;;;;20816386;28;20054;-45
2022/04/08 21:59:56;;;;;;;17.58;1.10;;;5.80;99.90;;;;;;20813602;28;20053;-45
2022/04/08 22:09:57;;;;;;;3.75;0.90;;;5.80;99.90;;;;;;20809099;28;20045;-44
2022/04/08 22:19:58;;;;;;;2.13;0.65;;;5.90;99.90;;;;;;20812164;28;20253;-44
2022/04/08 22:29:59;;;;;;;3.67;0.50;;;6.00;99.90;;;;;;20790811;28;20045;-44
2022/04/08 22:40:01;;;;;;;4.28;0.80;;;5.90;99.90;;;;;;20807839;28;20069;-44
2022/04/08 22:50:03;;;;;;;3.70;0.50;;;5.80;99.90;;;;;;20775237;28;20052;-44
2022/04/08 23:00:09;;;;;;;3.65;0.43;;;5.70;99.90;;;;;;20814487;28;20037;-43
2022/04/08 23:10:10;;;;;;;6.55;0.73;;;5.70;99.90;;;;;;20806733;28;20082;-44
2022/04/08 23:20:11;;;;;;;2.55;1.13;;;6.30;99.90;;;;;;20809281;28;20052;-44
2022/04/08 23:30:12;;;;;;;2.50;0.90;;;6.10;99.90;;;;;;20800592;28;20048;-46
2022/04/08 23:40:13;;;;;;;6.32;0.40;;;6.00;99.90;;;;;;20813205;28;20077;-46
2022/04/08 23:50:15;;;;;;;2.50;0.57;;;6.00;99.90;;;;;;20813003;28;20053;-46
